sensor_id;sensor_type;location;lat;lon;timestamp;pressure;altitude;pressure_sealevel;temperature
13410;BMP180;6775;49.574;11.170;2023-11-21T00:00:38;97000.16;;;8.17
13410;BMP180;6775;49.574;11.170;2023-11-21T00:03:06;96990.84;;;8.16
13410;BMP180;6775;49.574;11.170;2023-11-21T00:05:34;96990.47;;;8.20
13410;BMP180;6775;49.574;11.170;2023-11-21T00:08:04;96989.44;;;8.23
13410;BMP180;6775;49.574;11.170;2023-11-21T00:10:34;96990.00;;;8.26
13410;BMP180;6775;49.574;11.170;2023-11-21T00:13:04;96988.81;;;8.30
13410;BMP180;6775;49.574;11.170;2023-11-21T00:15:33;96988.69;;;8.32
13410;BMP180;6775;49.574;11.170;2023-11-21T00:18:01;96992.06;;;8.32
13410;BMP180;6775;49.574;11.170;2023-11-21T00:20:29;96988.69;;;8.32
13410;BMP180;6775;49.574;11.170;2023-11-21T00:22:57;96989.50;;;8.32
13410;BMP180;6775;49.574;11.170;2023-11-21T00:25:27;96988.47;;;8.35
13410;BMP180;6775;49.574;11.170;2023-11-21T00:27:55;96982.16;;;8.39
13410;BMP180;6775;49.574;11.170;2023-11-21T00:30:23;96979.38;;;8.42
13410;BMP180;6775;49.574;11.170;2023-11-21T00:32:51;96981.94;;;8.42
13410;BMP180;6775;49.574;11.170;2023-11-21T00:35:19;96982.72;;;8.42
13410;BMP180;6775;49.574;11.170;2023-11-21T00:37:47;96979.50;;;8.40
13410;BMP180;6775;49.574;11.170;2023-11-21T00:40:17;96985.41;;;8.41
13410;BMP180;6775;49.574;11.170;2023-11-21T00:42:49;96985.28;;;8.42
13410;BMP180;6775;49.574;11.170;2023-11-21T00:45:17;96983.31;;;8.46
13410;BMP180;6775;49.574;11.170;2023-11-21T00:47:45;96980.75;;;8.46
13410;BMP180;6775;49.574;11.170;2023-11-21T00:50:13;96980.75;;;8.46
13410;BMP180;6775;49.574;11.170;2023-11-21T00:52:42;96982.47;;;8.45
13410;BMP180;6775;49.574;11.170;2023-11-21T00:55:10;96979.94;;;8.45
13410;BMP180;6775;49.574;11.170;2023-11-21T00:57:38;96982.59;;;8.44
13410;BMP180;6775;49.574;11.170;2023-11-21T01:00:09;96989.38;;;8.45
13410;BMP180;6775;49.574;11.170;2023-11-21T01:02:41;96984.25;;;8.45
13410;BMP180;6775;49.574;11.170;2023-11-21T01:05:08;96986.69;;;8.46
13410;BMP180;6775;49.574;11.170;2023-11-21T01:07:36;96990.03;;;8.47
13410;BMP180;6775;49.574;11.170;2023-11-21T01:10:05;96987.47;;;8.47
13410;BMP180;6775;49.574;11.170;2023-11-21T01:12:34;96989.91;;;8.48
13410;BMP180;6775;49.574;11.170;2023-11-21T01:15:05;96990.03;;;8.47
13410;BMP180;6775;49.574;11.170;2023-11-21T01:17:36;96997.41;;;8.40
13410;BMP180;6775;49.574;11.170;2023-11-21T01:20:06;96993.34;;;8.38
13410;BMP180;6775;49.574;11.170;2023-11-21T01:22:39;96997.06;;;8.34
13410;BMP180;6775;49.574;11.170;2023-11-21T01:25:08;96994.38;;;8.35
13410;BMP180;6775;49.574;11.170;2023-11-21T01:27:37;96998.69;;;8.35
13410;BMP180;6775;49.574;11.170;2023-11-21T01:30:06;96990.09;;;8.36
13410;BMP180;6775;49.574;11.170;2023-11-21T01:32:38;96994.38;;;8.35
13410;BMP180;6775;49.574;11.170;2023-11-21T01:35:08;96995.91;;;8.27
13410;BMP180;6775;49.574;11.170;2023-11-21T01:37:37;96987.78;;;8.22
13410;BMP180;6775;49.574;11.170;2023-11-21T01:40:07;96985.91;;;8.24
13410;BMP180;6775;49.574;11.170;2023-11-21T01:42:36;96991.50;;;8.29
13410;BMP180;6775;49.574;11.170;2023-11-21T01:45:06;96984.38;;;8.32
13410;BMP180;6775;49.574;11.170;2023-11-21T01:47:35;96993.81;;;8.32
13410;BMP180;6775;49.574;11.170;2023-11-21T01:50:08;96985.22;;;8.33
13410;BMP180;6775;49.574;11.170;2023-11-21T01:52:39;96979.03;;;8.35
13410;BMP180;6775;49.574;11.170;2023-11-21T01:55:08;96985.22;;;8.33
13410;BMP180;6775;49.574;11.170;2023-11-21T01:57:37;96980.78;;;8.35
13410;BMP180;6775;49.574;11.170;2023-11-21T02:00:07;96983.22;;;8.36
13410;BMP180;6775;49.574;11.170;2023-11-21T02:02:43;96982.41;;;8.36
13410;BMP180;6775;49.574;11.170;2023-11-21T02:05:13;96975.66;;;8.35
13410;BMP180;6775;49.574;11.170;2023-11-21T02:07:42;96978.91;;;8.37
13410;BMP180;6775;49.574;11.170;2023-11-21T02:10:10;96971.09;;;8.38
13410;BMP180;6775;49.574;11.170;2023-11-21T02:12:41;96980.16;;;8.42
13410;BMP180;6775;49.574;11.170;2023-11-21T02:15:12;96977.50;;;8.44
13410;BMP180;6775;49.574;11.170;2023-11-21T02:17:43;96975.03;;;8.42
13410;BMP180;6775;49.574;11.170;2023-11-21T02:20:14;96971.22;;;8.37
13410;BMP180;6775;49.574;11.170;2023-11-21T02:22:43;96968.91;;;8.34
13410;BMP180;6775;49.574;11.170;2023-11-21T02:25:12;96965.19;;;8.27
13410;BMP180;6775;49.574;11.170;2023-11-21T02:27:40;96970.44;;;8.25
13410;BMP180;6775;49.574;11.170;2023-11-21T02:30:11;96977.88;;;8.28
13410;BMP180;6775;49.574;11.170;2023-11-21T02:32:40;96977.06;;;8.28
13410;BMP180;6775;49.574;11.170;2023-11-21T02:35:15;96979.75;;;8.26
13410;BMP180;6775;49.574;11.170;2023-11-21T02:37:43;96975.44;;;8.27
13410;BMP180;6775;49.574;11.170;2023-11-21T02:40:13;96970.91;;;8.30
13410;BMP180;6775;49.574;11.170;2023-11-21T02:42:44;96973.34;;;8.32
13410;BMP180;6775;49.574;11.170;2023-11-21T02:45:14;96961.47;;;8.31
13410;BMP180;6775;49.574;11.170;2023-11-21T02:47:43;96956.09;;;8.34
13410;BMP180;6775;49.574;11.170;2023-11-21T02:50:12;96964.50;;;8.36
13410;BMP180;6775;49.574;11.170;2023-11-21T02:52:40;96965.28;;;8.36
13410;BMP180;6775;49.574;11.170;2023-11-21T02:55:09;96963.53;;;8.37
13410;BMP180;6775;49.574;11.170;2023-11-21T02:57:39;96974.72;;;8.36
13410;BMP180;6775;49.574;11.170;2023-11-21T03:00:08;96966.09;;;8.37
13410;BMP180;6775;49.574;11.170;2023-11-21T03:02:39;96962.84;;;8.35
13410;BMP180;6775;49.574;11.170;2023-11-21T03:05:08;96969.84;;;8.33
13410;BMP180;6775;49.574;11.170;2023-11-21T03:07:37;96962.72;;;8.36
13410;BMP180;6775;49.574;11.170;2023-11-21T03:10:07;96964.25;;;8.39
13410;BMP180;6775;49.574;11.170;2023-11-21T03:12:40;96959.56;;;8.44
13410;BMP180;6775;49.574;11.170;2023-11-21T03:15:08;96963.50;;;8.48
13410;BMP180;6775;49.574;11.170;2023-11-21T03:17:37;96960.03;;;8.49
13410;BMP180;6775;49.574;11.170;2023-11-21T03:20:06;96960.94;;;8.48
13410;BMP180;6775;49.574;11.170;2023-11-21T03:22:37;96959.19;;;8.48
13410;BMP180;6775;49.574;11.170;2023-11-21T03:25:08;96965.41;;;8.46
13410;BMP180;6775;49.574;11.170;2023-11-21T03:27:40;96969.00;;;8.43
13410;BMP180;6775;49.574;11.170;2023-11-21T03:30:10;96974.38;;;8.40
13410;BMP180;6775;49.574;11.170;2023-11-21T03:32:38;96963.41;;;8.38
13410;BMP180;6775;49.574;11.170;2023-11-21T03:35:07;96971.22;;;8.37
13410;BMP180;6775;49.574;11.170;2023-11-21T03:37:35;96971.47;;;8.34
13410;BMP180;6775;49.574;11.170;2023-11-21T03:40:07;96968.91;;;8.34
13410;BMP180;6775;49.574;11.170;2023-11-21T03:42:35;96967.97;;;8.35
13410;BMP180;6775;49.574;11.170;2023-11-21T03:45:07;96966.34;;;8.34
13410;BMP180;6775;49.574;11.170;2023-11-21T03:47:35;96970.78;;;8.32
13410;BMP180;6775;49.574;11.170;2023-11-21T03:50:05;96970.66;;;8.33
13410;BMP180;6775;49.574;11.170;2023-11-21T03:52:33;96970.41;;;8.36
13410;BMP180;6775;49.574;11.170;2023-11-21T03:55:02;96973.91;;;8.35
13410;BMP180;6775;49.574;11.170;2023-11-21T03:57:30;96967.41;;;8.31
13410;BMP180;6775;49.574;11.170;2023-11-21T03:59:58;96971.72;;;8.31
13410;BMP180;6775;49.574;11.170;2023-11-21T04:02:27;96983.59;;;8.32
13410;BMP180;6775;49.574;11.170;2023-11-21T04:04:56;96974.25;;;8.31
13410;BMP180;6775;49.574;11.170;2023-11-21T04:07:24;96987.78;;;8.33
13410;BMP180;6775;49.574;11.170;2023-11-21T04:09:52;96979.84;;;8.36
13410;BMP180;6775;49.574;11.170;2023-11-21T04:12:21;96984.50;;;8.31
13410;BMP180;6775;49.574;11.170;2023-11-21T04:14:49;96987.91;;;8.31
13410;BMP180;6775;49.574;11.170;2023-11-21T04:17:20;96982.78;;;8.31
13410;BMP180;6775;49.574;11.170;2023-11-21T04:19:50;96986.81;;;8.34
13410;BMP180;6775;49.574;11.170;2023-11-21T04:22:18;96980.66;;;8.36
13410;BMP180;6775;49.574;11.170;2023-11-21T04:24:46;96982.16;;;8.39
13410;BMP180;6775;49.574;11.170;2023-11-21T04:27:14;96979.84;;;8.36
13410;BMP180;6775;49.574;11.170;2023-11-21T04:29:44;96991.94;;;8.34
13410;BMP180;6775;49.574;11.170;2023-11-21T04:32:12;96994.50;;;8.34
13410;BMP180;6775;49.574;11.170;2023-11-21T04:34:40;96989.38;;;8.34
13410;BMP180;6775;49.574;11.170;2023-11-21T04:37:10;96994.25;;;8.37
13410;BMP180;6775;49.574;11.170;2023-11-21T04:39:38;96990.78;;;8.38
13410;BMP180;6775;49.574;11.170;2023-11-21T04:42:06;96995.22;;;8.36
13410;BMP180;6775;49.574;11.170;2023-11-21T04:44:34;96988.47;;;8.35
13410;BMP180;6775;49.574;11.170;2023-11-21T04:47:02;96996.13;;;8.35
13410;BMP180;6775;49.574;11.170;2023-11-21T04:49:31;96997.66;;;8.37
13410;BMP180;6775;49.574;11.170;2023-11-21T04:51:59;96994.25;;;8.37
13410;BMP180;6775;49.574;11.170;2023-11-21T04:54:30;96997.66;;;8.37
13410;BMP180;6775;49.574;11.170;2023-11-21T04:56:58;97002.78;;;8.37
13410;BMP180;6775;49.574;11.170;2023-11-21T04:59:27;97000.22;;;8.37
13410;BMP180;6775;49.574;11.170;2023-11-21T05:01:55;97000.56;;;8.33
13410;BMP180;6775;49.574;11.170;2023-11-21T05:04:23;97006.38;;;8.35
13410;BMP180;6775;49.574;11.170;2023-11-21T05:06:51;96999.13;;;8.40
13410;BMP180;6775;49.574;11.170;2023-11-21T05:09:19;97001.69;;;8.40
13410;BMP180;6775;49.574;11.170;2023-11-21T05:11:50;97011.94;;;8.40
13410;BMP180;6775;49.574;11.170;2023-11-21T05:14:20;97010.22;;;8.40
13410;BMP180;6775;49.574;11.170;2023-11-21T05:16:48;97009.28;;;8.41
13410;BMP180;6775;49.574;11.170;2023-11-21T05:19:17;97016.97;;;8.41
13410;BMP180;6775;49.574;11.170;2023-11-21T05:21:46;97017.91;;;8.40
13410;BMP180;6775;49.574;11.170;2023-11-21T05:24:14;97021.25;;;8.41
13410;BMP180;6775;49.574;11.170;2023-11-21T05:26:42;97022.31;;;8.38
13410;BMP180;6775;49.574;11.170;2023-11-21T05:29:11;97026.88;;;8.35
13410;BMP180;6775;49.574;11.170;2023-11-21T05:31:39;97028.50;;;8.36
13410;BMP180;6775;49.574;11.170;2023-11-21T05:34:07;97024.97;;;8.37
13410;BMP180;6775;49.574;11.170;2023-11-21T05:36:35;97027.66;;;8.35
13410;BMP180;6775;49.574;11.170;2023-11-21T05:39:03;97021.06;;;8.33
13410;BMP180;6775;49.574;11.170;2023-11-21T05:41:31;97026.88;;;8.35
13410;BMP180;6775;49.574;11.170;2023-11-21T05:43:59;97037.78;;;8.37
13410;BMP180;6775;49.574;11.170;2023-11-21T05:46:29;97035.34;;;8.35
13410;BMP180;6775;49.574;11.170;2023-11-21T05:48:57;97040.59;;;8.34
13410;BMP180;6775;49.574;11.170;2023-11-21T05:51:25;97045.03;;;8.32
13410;BMP180;6775;49.574;11.170;2023-11-21T05:53:53;97043.38;;;8.31
13410;BMP180;6775;49.574;11.170;2023-11-21T05:56:21;97050.16;;;8.32
13410;BMP180;6775;49.574;11.170;2023-11-21T05:58:49;97044.09;;;8.33
13410;BMP180;6775;49.574;11.170;2023-11-21T06:01:18;97044.78;;;8.35
13410;BMP180;6775;49.574;11.170;2023-11-21T06:03:47;97048.75;;;8.39
13410;BMP180;6775;49.574;11.170;2023-11-21T06:06:15;97049.19;;;8.44
13410;BMP180;6775;49.574;11.170;2023-11-21T06:08:43;97047.34;;;8.46
13410;BMP180;6775;49.574;11.170;2023-11-21T06:11:11;97064.31;;;8.47
13410;BMP180;6775;49.574;11.170;2023-11-21T06:13:40;97061.88;;;8.45
13410;BMP180;6775;49.574;11.170;2023-11-21T06:16:08;97063.97;;;8.40
13410;BMP180;6775;49.574;11.170;2023-11-21T06:18:36;97065.16;;;8.36
13410;BMP180;6775;49.574;11.170;2023-11-21T06:21:09;97060.16;;;8.35
13410;BMP180;6775;49.574;11.170;2023-11-21T06:23:38;97056.66;;;8.36
13410;BMP180;6775;49.574;11.170;2023-11-21T06:26:06;97065.03;;;8.38
13410;BMP180;6775;49.574;11.170;2023-11-21T06:28:36;97061.31;;;8.42
13410;BMP180;6775;49.574;11.170;2023-11-21T06:31:04;97067.81;;;8.46
13410;BMP180;6775;49.574;11.170;2023-11-21T06:33:32;97069.19;;;8.50
13410;BMP180;6775;49.574;11.170;2023-11-21T06:36:00;97071.41;;;8.54
13410;BMP180;6775;49.574;11.170;2023-11-21T06:38:30;97076.28;;;8.57
13410;BMP180;6775;49.574;11.170;2023-11-21T06:40:59;97077.78;;;8.59
13410;BMP180;6775;49.574;11.170;2023-11-21T06:43:29;97082.78;;;8.61
13410;BMP180;6775;49.574;11.170;2023-11-21T06:45:58;97089.44;;;8.63
13410;BMP180;6775;49.574;11.170;2023-11-21T06:48:26;97088.50;;;8.64
13410;BMP180;6775;49.574;11.170;2023-11-21T06:50:54;97093.63;;;8.64
13410;BMP180;6775;49.574;11.170;2023-11-21T06:53:22;97095.22;;;8.65
13410;BMP180;6775;49.574;11.170;2023-11-21T06:55:52;97096.66;;;8.58
13410;BMP180;6775;49.574;11.170;2023-11-21T06:58:20;97093.16;;;8.59
13410;BMP180;6775;49.574;11.170;2023-11-21T07:00:48;97102.47;;;8.60
13410;BMP180;6775;49.574;11.170;2023-11-21T07:03:20;97106.44;;;8.64
13410;BMP180;6775;49.574;11.170;2023-11-21T07:05:48;97115.50;;;8.68
13410;BMP180;6775;49.574;11.170;2023-11-21T07:08:16;97116.19;;;8.70
13410;BMP180;6775;49.574;11.170;2023-11-21T07:10:44;97116.19;;;8.70
13410;BMP180;6775;49.574;11.170;2023-11-21T07:13:13;97117.97;;;8.70
13410;BMP180;6775;49.574;11.170;2023-11-21T07:15:41;97117.84;;;8.71
13410;BMP180;6775;49.574;11.170;2023-11-21T07:18:10;97127.00;;;8.74
13410;BMP180;6775;49.574;11.170;2023-11-21T07:20:38;97123.63;;;8.73
13410;BMP180;6775;49.574;11.170;2023-11-21T07:23:06;97127.13;;;8.72
13410;BMP180;6775;49.574;11.170;2023-11-21T07:25:34;97131.31;;;8.73
13410;BMP180;6775;49.574;11.170;2023-11-21T07:28:03;97130.28;;;8.76
13410;BMP180;6775;49.574;11.170;2023-11-21T07:30:33;97137.72;;;8.79
13410;BMP180;6775;49.574;11.170;2023-11-21T07:33:01;97134.38;;;8.78
13410;BMP180;6775;49.574;11.170;2023-11-21T07:35:29;97133.41;;;8.79
13410;BMP180;6775;49.574;11.170;2023-11-21T07:37:57;97135.72;;;8.82
13410;BMP180;6775;49.574;11.170;2023-11-21T07:40:25;97140.38;;;8.88
13410;BMP180;6775;49.574;11.170;2023-11-21T07:42:54;97144.09;;;8.95
13410;BMP180;6775;49.574;11.170;2023-11-21T07:45:24;97148.97;;;8.98
13410;BMP180;6775;49.574;11.170;2023-11-21T07:47:55;97149.56;;;9.02
13410;BMP180;6775;49.574;11.170;2023-11-21T07:50:24;97158.66;;;9.05
13410;BMP180;6775;49.574;11.170;2023-11-21T07:52:53;97160.13;;;9.08
13410;BMP180;6775;49.574;11.170;2023-11-21T07:55:21;97160.13;;;9.08
13410;BMP180;6775;49.574;11.170;2023-11-21T07:57:49;97163.66;;;9.07
13410;BMP180;6775;49.574;11.170;2023-11-21T08:00:18;97166.44;;;9.04
13410;BMP180;6775;49.574;11.170;2023-11-21T08:02:48;97169.03;;;9.04
13410;BMP180;6775;49.574;11.170;2023-11-21T08:05:17;97167.25;;;9.04
13410;BMP180;6775;49.574;11.170;2023-11-21T08:07:58;97160.38;;;9.05
13410;BMP180;6775;49.574;11.170;2023-11-21T08:10:26;97166.91;;;9.09
13410;BMP180;6775;49.574;11.170;2023-11-21T08:12:54;97170.97;;;9.11
13410;BMP180;6775;49.574;11.170;2023-11-21T08:15:22;97170.13;;;9.11
13410;BMP180;6775;49.574;11.170;2023-11-21T08:17:50;97173.41;;;9.13
13410;BMP180;6775;49.574;11.170;2023-11-21T08:20:19;97177.13;;;9.20
13410;BMP180;6775;49.574;11.170;2023-11-21T08:22:49;97184.56;;;9.23
13410;BMP180;6775;49.574;11.170;2023-11-21T08:25:19;97174.88;;;9.26
13410;BMP180;6775;49.574;11.170;2023-11-21T08:27:47;97171.25;;;9.29
13410;BMP180;6775;49.574;11.170;2023-11-21T08:30:15;97162.41;;;9.33
13410;BMP180;6775;49.574;11.170;2023-11-21T08:32:45;97167.28;;;9.36
13410;BMP180;6775;49.574;11.170;2023-11-21T08:35:13;97167.84;;;9.39
13410;BMP180;6775;49.574;11.170;2023-11-21T08:37:44;97172.59;;;9.44
13410;BMP180;6775;49.574;11.170;2023-11-21T08:40:12;97165.63;;;9.46
13410;BMP180;6775;49.574;11.170;2023-11-21T08:42:43;97173.19;;;9.47
13410;BMP180;6775;49.574;11.170;2023-11-21T08:45:12;97178.06;;;9.50
13410;BMP180;6775;49.574;11.170;2023-11-21T08:47:40;97180.50;;;9.52
13410;BMP180;6775;49.574;11.170;2023-11-21T08:50:11;97182.16;;;9.53
13410;BMP180;6775;49.574;11.170;2023-11-21T08:52:40;97184.81;;;9.51
13410;BMP180;6775;49.574;11.170;2023-11-21T08:55:10;97180.88;;;9.47
13410;BMP180;6775;49.574;11.170;2023-11-21T08:57:40;97189.50;;;9.46
13410;BMP180;6775;49.574;11.170;2023-11-21T09:00:09;97192.06;;;9.46
13410;BMP180;6775;49.574;11.170;2023-11-21T09:02:39;97198.97;;;9.46
13410;BMP180;6775;49.574;11.170;2023-11-21T09:05:09;97202.31;;;9.46
13410;BMP180;6775;49.574;11.170;2023-11-21T09:07:39;97201.28;;;9.49
13410;BMP180;6775;49.574;11.170;2023-11-21T09:10:10;97211.28;;;9.52
13410;BMP180;6775;49.574;11.170;2023-11-21T09:12:38;97204.28;;;9.53
13410;BMP180;6775;49.574;11.170;2023-11-21T09:15:08;97214.53;;;9.53
13410;BMP180;6775;49.574;11.170;2023-11-21T09:17:38;97219.41;;;9.56
13410;BMP180;6775;49.574;11.170;2023-11-21T09:20:08;97218.13;;;9.62
13410;BMP180;6775;49.574;11.170;2023-11-21T09:22:37;97214.38;;;9.66
13410;BMP180;6775;49.574;11.170;2023-11-21T09:25:06;97219.13;;;9.70
13410;BMP180;6775;49.574;11.170;2023-11-21T09:27:36;97223.09;;;9.74
13410;BMP180;6775;49.574;11.170;2023-11-21T09:30:06;97224.13;;;9.83
13410;BMP180;6775;49.574;11.170;2023-11-21T09:32:37;97230.72;;;9.96
13410;BMP180;6775;49.574;11.170;2023-11-21T09:35:07;97231.34;;;10.09
13410;BMP180;6775;49.574;11.170;2023-11-21T09:37:36;97235.59;;;10.19
13410;BMP180;6775;49.574;11.170;2023-11-21T09:40:09;97232.84;;;10.32
13410;BMP180;6775;49.574;11.170;2023-11-21T09:42:51;97233.13;;;10.58
13410;BMP180;6775;49.574;11.170;2023-11-21T09:45:26;97227.16;;;10.88
13410;BMP180;6775;49.574;11.170;2023-11-21T09:47:56;97231.03;;;11.12
13410;BMP180;6775;49.574;11.170;2023-11-21T09:50:25;97216.59;;;11.30
13410;BMP180;6775;49.574;11.170;2023-11-21T09:52:58;97224.72;;;11.35
13410;BMP180;6775;49.574;11.170;2023-11-21T09:55:34;97221.22;;;11.36
13410;BMP180;6775;49.574;11.170;2023-11-21T09:58:05;97222.56;;;11.40
13410;BMP180;6775;49.574;11.170;2023-11-21T10:00:35;97220.31;;;11.56
13410;BMP180;6775;49.574;11.170;2023-11-21T10:03:03;97225.47;;;11.74
13410;BMP180;6775;49.574;11.170;2023-11-21T10:05:31;97221.94;;;12.04
13410;BMP180;6775;49.574;11.170;2023-11-21T10:08:01;97223.34;;;12.44
13410;BMP180;6775;49.574;11.170;2023-11-21T10:10:31;97220.53;;;12.73
13410;BMP180;6775;49.574;11.170;2023-11-21T10:13:04;97219.69;;;12.92
13410;BMP180;6775;49.574;11.170;2023-11-21T10:15:34;97216.25;;;13.27
13410;BMP180;6775;49.574;11.170;2023-11-21T10:18:05;97212.53;;;13.91
13410;BMP180;6775;49.574;11.170;2023-11-21T10:20:34;97207.94;;;14.70
13410;BMP180;6775;49.574;11.170;2023-11-21T10:23:04;97203.03;;;15.26
13410;BMP180;6775;49.574;11.170;2023-11-21T10:25:34;97214.75;;;15.54
13410;BMP180;6775;49.574;11.170;2023-11-21T10:28:05;97210.00;;;15.33
13410;BMP180;6775;49.574;11.170;2023-11-21T10:30:35;97217.44;;;14.95
13410;BMP180;6775;49.574;11.170;2023-11-21T10:33:05;97217.88;;;14.58
13410;BMP180;6775;49.574;11.170;2023-11-21T10:35:46;97218.81;;;14.06
13410;BMP180;6775;49.574;11.170;2023-11-21T10:38:18;97212.97;;;13.52
13410;BMP180;6775;49.574;11.170;2023-11-21T10:40:48;97225.31;;;13.14
13410;BMP180;6775;49.574;11.170;2023-11-21T10:43:18;97220.84;;;12.70
13410;BMP180;6775;49.574;11.170;2023-11-21T10:45:46;97224.59;;;12.40
13410;BMP180;6775;49.574;11.170;2023-11-21T10:48:15;97226.94;;;12.14
13410;BMP180;6775;49.574;11.170;2023-11-21T10:50:45;97227.38;;;11.91
13410;BMP180;6775;49.574;11.170;2023-11-21T10:53:14;97231.28;;;11.76
13410;BMP180;6775;49.574;11.170;2023-11-21T10:55:42;97229.66;;;11.57
13410;BMP180;6775;49.574;11.170;2023-11-21T10:58:14;97224.50;;;11.57
13410;BMP180;6775;49.574;11.170;2023-11-21T11:00:44;97233.84;;;11.57
13410;BMP180;6775;49.574;11.170;2023-11-21T11:03:13;97229.81;;;11.64
13410;BMP180;6775;49.574;11.170;2023-11-21T11:05:44;97232.34;;;11.55
13410;BMP180;6775;49.574;11.170;2023-11-21T11:08:20;97232.66;;;11.61
13410;BMP180;6775;49.574;11.170;2023-11-21T11:10:55;97232.38;;;11.64
13410;BMP180;6775;49.574;11.170;2023-11-21T11:13:23;97237.78;;;11.52
13410;BMP180;6775;49.574;11.170;2023-11-21T11:15:59;97237.47;;;11.46
13410;BMP180;6775;49.574;11.170;2023-11-21T11:18:29;97233.09;;;11.37
13410;BMP180;6775;49.574;11.170;2023-11-21T11:21:07;97235.28;;;11.32
13410;BMP180;6775;49.574;11.170;2023-11-21T11:23:59;97230.41;;;11.29
13410;BMP180;6775;49.574;11.170;2023-11-21T11:26:46;97221.44;;;11.23
13410;BMP180;6775;49.574;11.170;2023-11-21T11:29:27;97222.81;;;11.27
13410;BMP180;6775;49.574;11.170;2023-11-21T11:32:10;97226.91;;;11.30
13410;BMP180;6775;49.574;11.170;2023-11-21T11:34:47;97227.28;;;11.35
13410;BMP180;6775;49.574;11.170;2023-11-21T11:37:17;97224.72;;;11.35
13410;BMP180;6775;49.574;11.170;2023-11-21T11:39:46;97235.00;;;11.35
13410;BMP180;6775;49.574;11.170;2023-11-21T11:42:16;97234.34;;;11.33
13410;BMP180;6775;49.574;11.170;2023-11-21T11:44:52;97231.19;;;11.20
13410;BMP180;6775;49.574;11.170;2023-11-21T11:47:26;97242.78;;;11.05
13410;BMP180;6775;49.574;11.170;2023-11-21T11:50:03;97237.91;;;11.02
13410;BMP180;6775;49.574;11.170;2023-11-21T11:52:40;97229.06;;;10.95
13410;BMP180;6775;49.574;11.170;2023-11-21T11:55:11;97238.00;;;10.91
13410;BMP180;6775;49.574;11.170;2023-11-21T11:57:41;97244.75;;;10.92
13410;BMP180;6775;49.574;11.170;2023-11-21T12:00:18;97242.19;;;10.92
13410;BMP180;6775;49.574;11.170;2023-11-21T12:02:51;97241.38;;;10.92
13410;BMP180;6775;49.574;11.170;2023-11-21T12:05:21;97252.75;;;10.89
13410;BMP180;6775;49.574;11.170;2023-11-21T12:07:51;97255.31;;;10.89
13410;BMP180;6775;49.574;11.170;2023-11-21T12:10:22;97249.75;;;10.84
13410;BMP180;6775;49.574;11.170;2023-11-21T12:12:53;97252.59;;;10.81
13410;BMP180;6775;49.574;11.170;2023-11-21T12:15:22;97253.78;;;10.77
13410;BMP180;6775;49.574;11.170;2023-11-21T12:17:52;97256.34;;;10.77
13410;BMP180;6775;49.574;11.170;2023-11-21T12:20:23;97265.69;;;10.78
13410;BMP180;6775;49.574;11.170;2023-11-21T12:22:53;97260.03;;;10.84
13410;BMP180;6775;49.574;11.170;2023-11-21T12:25:23;97254.38;;;10.90
13410;BMP180;6775;49.574;11.170;2023-11-21T12:27:52;97247.34;;;10.92
13410;BMP180;6775;49.574;11.170;2023-11-21T12:30:23;97265.84;;;10.86
13410;BMP180;6775;49.574;11.170;2023-11-21T12:32:55;97260.72;;;10.86
13410;BMP180;6775;49.574;11.170;2023-11-21T12:35:26;97263.72;;;10.91
13410;BMP180;6775;49.574;11.170;2023-11-21T12:37:56;97262.34;;;10.87
13410;BMP180;6775;49.574;11.170;2023-11-21T12:40:26;97257.88;;;10.89
13410;BMP180;6775;49.574;11.170;2023-11-21T12:42:56;97258.72;;;10.99
13410;BMP180;6775;49.574;11.170;2023-11-21T12:45:27;97270.53;;;11.11
13410;BMP180;6775;49.574;11.170;2023-11-21T12:48:01;97265.44;;;11.20
13410;BMP180;6775;49.574;11.170;2023-11-21T12:50:35;97270.63;;;11.30
13410;BMP180;6775;49.574;11.170;2023-11-21T12:53:07;97269.97;;;11.37
13410;BMP180;6775;49.574;11.170;2023-11-21T12:55:37;97268.91;;;11.40
13410;BMP180;6775;49.574;11.170;2023-11-21T12:58:07;97269.72;;;11.50
13410;BMP180;6775;49.574;11.170;2023-11-21T13:00:42;97269.22;;;11.56
13410;BMP180;6775;49.574;11.170;2023-11-21T13:03:13;97268.53;;;11.72
13410;BMP180;6775;49.574;11.170;2023-11-21T13:05:46;97278.72;;;12.02
13410;BMP180;6775;49.574;11.170;2023-11-21T13:08:17;97276.56;;;12.07
13410;BMP180;6775;49.574;11.170;2023-11-21T13:10:50;97281.47;;;11.91
13410;BMP180;6775;49.574;11.170;2023-11-21T13:13:19;97276.28;;;11.82
13410;BMP180;6775;49.574;11.170;2023-11-21T13:15:53;97280.34;;;11.75
13410;BMP180;6775;49.574;11.170;2023-11-21T13:18:24;97279.00;;;11.99
13410;BMP180;6775;49.574;11.170;2023-11-21T13:20:53;97276.56;;;12.07
13410;BMP180;6775;49.574;11.170;2023-11-21T13:23:24;97278.72;;;12.21
13410;BMP180;6775;49.574;11.170;2023-11-21T13:25:52;97281.63;;;12.63
13410;BMP180;6775;49.574;11.170;2023-11-21T13:28:31;97290.78;;;14.01
13410;BMP180;6775;49.574;11.170;2023-11-21T13:31:02;97270.44;;;15.50
13410;BMP180;6775;49.574;11.170;2023-11-21T13:33:38;97280.94;;;16.76
13410;BMP180;6775;49.574;11.170;2023-11-21T13:36:08;97277.41;;;16.62
13410;BMP180;6775;49.574;11.170;2023-11-21T13:38:38;97271.59;;;15.63
13410;BMP180;6775;49.574;11.170;2023-11-21T13:41:09;97281.47;;;14.68
13410;BMP180;6775;49.574;11.170;2023-11-21T13:43:40;97277.19;;;13.99
13410;BMP180;6775;49.574;11.170;2023-11-21T13:46:11;97274.84;;;13.44
13410;BMP180;6775;49.574;11.170;2023-11-21T13:48:45;97277.34;;;13.00
13410;BMP180;6775;49.574;11.170;2023-11-21T13:51:18;97280.56;;;12.57
13410;BMP180;6775;49.574;11.170;2023-11-21T13:53:48;97278.19;;;12.27
13410;BMP180;6775;49.574;11.170;2023-11-21T13:56:19;97287.03;;;12.06
13410;BMP180;6775;49.574;11.170;2023-11-21T13:58:52;97285.09;;;11.89
13410;BMP180;6775;49.574;11.170;2023-11-21T14:01:23;97289.56;;;11.77
13410;BMP180;6775;49.574;11.170;2023-11-21T14:04:10;97293.09;;;11.76
13410;BMP180;6775;49.574;11.170;2023-11-21T14:06:47;97297.44;;;11.76
13410;BMP180;6775;49.574;11.170;2023-11-21T14:09:20;97300.41;;;11.71
13410;BMP180;6775;49.574;11.170;2023-11-21T14:11:52;97292.38;;;11.65
13410;BMP180;6775;49.574;11.170;2023-11-21T14:14:22;97292.53;;;11.63
13410;BMP180;6775;49.574;11.170;2023-11-21T14:16:51;97299.13;;;11.57
13410;BMP180;6775;49.574;11.170;2023-11-21T14:19:21;97300.38;;;11.53
13410;BMP180;6775;49.574;11.170;2023-11-21T14:21:54;97307.06;;;11.35
13410;BMP180;6775;49.574;11.170;2023-11-21T14:24:22;97311.59;;;11.22
13410;BMP180;6775;49.574;11.170;2023-11-21T14:26:51;97312.66;;;11.10
13410;BMP180;6775;49.574;11.170;2023-11-21T14:29:20;97317.06;;;10.99
13410;BMP180;6775;49.574;11.170;2023-11-21T14:31:50;97313.63;;;10.89